sensor_id;sensor_type;location;lat;lon;timestamp;pressure;altitude;pressure_sealevel;temperature;humidity
72395;BME280;60384;48.152;11.614;2023-03-29T00:01:00;96148.66;;;5.17;55.47
72395;BME280;60384;48.152;11.614;2023-03-29T00:04:02;96174.06;;;5.18;55.42
72395;BME280;60384;48.152;11.614;2023-03-29T00:07:04;96176.19;;;5.16;55.36
72395;BME280;60384;48.152;11.614;2023-03-29T00:10:07;96179.38;;;5.18;55.54
72395;BME280;60384;48.152;11.614;2023-03-29T00:13:09;96212.72;;;5.19;55.50
72395;BME280;60384;48.152;11.614;2023-03-29T00:16:12;96209.00;;;5.20;55.40
72395;BME280;60384;48.152;11.614;2023-03-29T00:19:13;96211.66;;;5.20;55.38
72395;BME280;60384;48.152;11.614;2023-03-29T00:22:15;96229.94;;;5.21;55.58
72395;BME280;60384;48.152;11.614;2023-03-29T00:25:17;96223.56;;;5.22;55.45
72395;BME280;60384;48.152;11.614;2023-03-29T00:28:18;96230.19;;;5.25;55.31
72395;BME280;60384;48.152;11.614;2023-03-29T00:31:21;96234.41;;;5.26;55.19
72395;BME280;60384;48.152;11.614;2023-03-29T00:34:23;96245.53;;;5.28;55.38
72395;BME280;60384;48.152;11.614;2023-03-29T00:37:26;96241.84;;;5.29;55.21
72395;BME280;60384;48.152;11.614;2023-03-29T00:40:29;96238.66;;;5.32;55.57
72395;BME280;60384;48.152;11.614;2023-03-29T00:43:30;96232.28;;;5.33;55.37
72395;BME280;60384;48.152;11.614;2023-03-29T00:46:34;96224.34;;;5.33;55.46
72395;BME280;60384;48.152;11.614;2023-03-29T00:49:35;96226.19;;;5.37;55.05
72395;BME280;60384;48.152;11.614;2023-03-29T00:52:37;96234.66;;;5.39;55.64
72395;BME280;60384;48.152;11.614;2023-03-29T00:55:41;96233.31;;;5.42;55.63
72395;BME280;60384;48.152;11.614;2023-03-29T00:58:45;96215.56;;;5.43;55.38
72395;BME280;60384;48.152;11.614;2023-03-29T01:01:49;96216.63;;;5.41;55.29
72395;BME280;60384;48.152;11.614;2023-03-29T01:04:54;96208.97;;;5.35;55.29
72395;BME280;60384;48.152;11.614;2023-03-29T01:08:00;96221.16;;;5.31;55.39
72395;BME280;60384;48.152;11.614;2023-03-29T01:11:03;96215.06;;;5.30;55.65
72395;BME280;60384;48.152;11.614;2023-03-29T01:14:09;96205.28;;;5.26;55.68
72395;BME280;60384;48.152;11.614;2023-03-29T01:17:14;96194.72;;;5.21;56.01
72395;BME280;60384;48.152;11.614;2023-03-29T01:20:16;96189.41;;;5.21;55.42
72395;BME280;60384;48.152;11.614;2023-03-29T01:23:27;96189.16;;;5.22;55.91
72395;BME280;60384;48.152;11.614;2023-03-29T01:26:35;96181.47;;;5.21;56.04
72395;BME280;60384;48.152;11.614;2023-03-29T01:29:43;96165.84;;;5.19;55.39
72395;BME280;60384;48.152;11.614;2023-03-29T01:32:46;96166.13;;;5.18;55.32
72395;BME280;60384;48.152;11.614;2023-03-29T01:35:51;96159.75;;;5.19;55.42
72395;BME280;60384;48.152;11.614;2023-03-29T01:38:57;96155.81;;;5.16;55.64
72395;BME280;60384;48.152;11.614;2023-03-29T01:42:02;96151.31;;;5.12;55.60
72395;BME280;60384;48.152;11.614;2023-03-29T01:45:12;96144.97;;;5.08;56.14
72395;BME280;60384;48.152;11.614;2023-03-29T01:48:18;96135.44;;;5.07;55.55
72395;BME280;60384;48.152;11.614;2023-03-29T01:51:22;96129.38;;;5.06;55.22
72395;BME280;60384;48.152;11.614;2023-03-29T01:54:26;96100.25;;;5.06;55.90
72395;BME280;60384;48.152;11.614;2023-03-29T01:57:31;96108.44;;;5.05;55.80
72395;BME280;60384;48.152;11.614;2023-03-29T02:00:35;96105.78;;;5.05;55.55
72395;BME280;60384;48.152;11.614;2023-03-29T02:03:39;96106.84;;;5.04;55.25
72395;BME280;60384;48.152;11.614;2023-03-29T02:06:42;96094.41;;;5.04;55.65
72395;BME280;60384;48.152;11.614;2023-03-29T02:09:45;96105.78;;;5.05;55.71
72395;BME280;60384;48.152;11.614;2023-03-29T02:12:49;96092.56;;;5.05;55.54
72395;BME280;60384;48.152;11.614;2023-03-29T02:15:52;96095.22;;;5.05;55.69
72395;BME280;60384;48.152;11.614;2023-03-29T02:18:54;96089.91;;;5.05;55.62
72395;BME280;60384;48.152;11.614;2023-03-29T02:21:58;96079.06;;;5.06;55.85
72395;BME280;60384;48.152;11.614;2023-03-29T02:25:03;96089.66;;;5.06;56.02
72395;BME280;60384;48.152;11.614;2023-03-29T02:28:08;96083.56;;;5.06;55.71
72395;BME280;60384;48.152;11.614;2023-03-29T02:31:12;96067.69;;;5.06;55.75
72395;BME280;60384;48.152;11.614;2023-03-29T02:34:18;96074.03;;;5.05;55.58
72395;BME280;60384;48.152;11.614;2023-03-29T02:37:21;96061.06;;;5.03;55.79
72395;BME280;60384;48.152;11.614;2023-03-29T02:40:28;96057.91;;;5.01;55.79
72395;BME280;60384;48.152;11.614;2023-03-29T02:43:30;96060.03;;;4.99;55.48
72395;BME280;60384;48.152;11.614;2023-03-29T02:46:34;96053.94;;;4.98;55.53
72395;BME280;60384;48.152;11.614;2023-03-29T02:49:37;96045.47;;;4.96;56.03
72395;BME280;60384;48.152;11.614;2023-03-29T02:52:39;96043.09;;;4.95;55.66
72395;BME280;60384;48.152;11.614;2023-03-29T02:55:43;96032.78;;;4.93;55.43
72395;BME280;60384;48.152;11.614;2023-03-29T02:58:46;96036.22;;;4.94;55.71
72395;BME280;60384;48.152;11.614;2023-03-29T03:01:49;96030.66;;;4.90;55.87
72395;BME280;60384;48.152;11.614;2023-03-29T03:04:52;96029.09;;;4.89;55.93
72395;BME280;60384;48.152;11.614;2023-03-29T03:07:54;96024.34;;;4.86;55.98
72395;BME280;60384;48.152;11.614;2023-03-29T03:10:56;96021.16;;;4.84;55.83
72395;BME280;60384;48.152;11.614;2023-03-29T03:13:59;96021.44;;;4.83;56.03
72395;BME280;60384;48.152;11.614;2023-03-29T03:17:03;96018.00;;;4.82;56.04
72395;BME280;60384;48.152;11.614;2023-03-29T03:20:07;96008.47;;;4.81;55.60
72395;BME280;60384;48.152;11.614;2023-03-29T03:23:12;96006.09;;;4.80;55.42
72395;BME280;60384;48.152;11.614;2023-03-29T03:26:14;96001.09;;;4.78;55.49
72395;BME280;60384;48.152;11.614;2023-03-29T03:29:18;96003.75;;;4.78;56.04
72395;BME280;60384;48.152;11.614;2023-03-29T03:32:52;95987.34;;;4.76;56.02
72395;BME280;60384;48.152;11.614;2023-03-29T03:35:54;95972.28;;;4.72;56.03
72395;BME280;60384;48.152;11.614;2023-03-29T03:39:04;95986.81;;;4.69;56.00
72395;BME280;60384;48.152;11.614;2023-03-29T03:42:06;95979.94;;;4.68;55.57
72395;BME280;60384;48.152;11.614;2023-03-29T03:45:11;95974.94;;;4.67;56.16
72395;BME280;60384;48.152;11.614;2023-03-29T03:48:30;95969.66;;;4.62;56.04
72395;BME280;60384;48.152;11.614;2023-03-29T03:51:44;95971.00;;;4.59;55.61
72395;BME280;60384;48.152;11.614;2023-03-29T03:54:47;95959.38;;;4.55;56.39
72395;BME280;60384;48.152;11.614;2023-03-29T03:58:08;95959.13;;;4.51;55.71
72395;BME280;60384;48.152;11.614;2023-03-29T04:01:10;95960.47;;;4.49;56.50
72395;BME280;60384;48.152;11.614;2023-03-29T04:04:21;95950.41;;;4.46;56.41
72395;BME280;60384;48.152;11.614;2023-03-29T04:07:44;95946.47;;;4.43;55.76
72395;BME280;60384;48.152;11.614;2023-03-29T04:11:02;95934.56;;;4.41;56.01
72395;BME280;60384;48.152;11.614;2023-03-29T04:14:09;95935.63;;;4.40;56.25
72395;BME280;60384;48.152;11.614;2023-03-29T04:17:29;95939.84;;;4.41;56.27
72395;BME280;60384;48.152;11.614;2023-03-29T04:20:55;95943.03;;;4.43;55.65
72395;BME280;60384;48.152;11.614;2023-03-29T04:23:59;95940.38;;;4.43;56.38
72395;BME280;60384;48.152;11.614;2023-03-29T04:27:01;95935.59;;;4.45;56.39
72395;BME280;60384;48.152;11.614;2023-03-29T04:30:03;95934.53;;;4.46;56.01
72395;BME280;60384;48.152;11.614;2023-03-29T04:33:25;95931.38;;;4.49;55.73
72395;BME280;60384;48.152;11.614;2023-03-29T04:36:34;95927.38;;;4.51;55.71
72395;BME280;60384;48.152;11.614;2023-03-29T04:39:38;95919.72;;;4.55;55.57
72395;BME280;60384;48.152;11.614;2023-03-29T04:42:42;95927.09;;;4.58;55.62
72395;BME280;60384;48.152;11.614;2023-03-29T04:45:45;95920.47;;;4.61;56.51
72395;BME280;60384;48.152;11.614;2023-03-29T04:48:59;95916.22;;;4.65;56.06
72395;BME280;60384;48.152;11.614;2023-03-29T04:52:09;95916.44;;;4.68;56.26
72395;BME280;60384;48.152;11.614;2023-03-29T04:55:11;95920.41;;;4.71;56.05
72395;BME280;60384;48.152;11.614;2023-03-29T04:58:23;95921.19;;;4.76;55.99
72395;BME280;60384;48.152;11.614;2023-03-29T05:01:24;95920.34;;;4.81;55.95
72395;BME280;60384;48.152;11.614;2023-03-29T05:04:31;95905.25;;;4.86;55.73
72395;BME280;60384;48.152;11.614;2023-03-29T05:07:43;95908.13;;;4.90;56.38
72395;BME280;60384;48.152;11.614;2023-03-29T05:10:47;95896.72;;;4.94;56.05
72395;BME280;60384;48.152;11.614;2023-03-29T05:13:50;95899.06;;;5.01;55.79
72395;BME280;60384;48.152;11.614;2023-03-29T05:16:55;95921.78;;;5.07;55.99
72395;BME280;60384;48.152;11.614;2023-03-29T05:19:58;95912.72;;;5.13;55.94
72395;BME280;60384;48.152;11.614;2023-03-29T05:23:01;95901.34;;;5.18;56.01
72395;BME280;60384;48.152;11.614;2023-03-29T05:26:21;95907.88;;;5.25;55.88
72395;BME280;60384;48.152;11.614;2023-03-29T05:29:26;95907.53;;;5.37;55.90
72395;BME280;60384;48.152;11.614;2023-03-29T05:32:40;95902.13;;;5.47;55.64
72395;BME280;60384;48.152;11.614;2023-03-29T05:35:45;95906.84;;;5.55;56.02
72395;BME280;60384;48.152;11.614;2023-03-29T05:38:48;95909.97;;;5.62;55.81
72395;BME280;60384;48.152;11.614;2023-03-29T05:41:50;95913.88;;;5.70;55.57
72395;BME280;60384;48.152;11.614;2023-03-29T05:45:04;95916.72;;;5.78;55.41
72395;BME280;60384;48.152;11.614;2023-03-29T05:48:06;95912.41;;;5.88;55.72
72395;BME280;60384;48.152;11.614;2023-03-29T05:51:09;95913.41;;;5.97;55.58
72395;BME280;60384;48.152;11.614;2023-03-29T05:54:12;95914.34;;;6.06;55.50
72395;BME280;60384;48.152;11.614;2023-03-29T05:57:14;95912.16;;;6.13;55.46
72395;BME280;60384;48.152;11.614;2023-03-29T06:00:17;95915.28;;;6.20;55.46
72395;BME280;60384;48.152;11.614;2023-03-29T06:03:28;95913.56;;;6.29;55.70
72395;BME280;60384;48.152;11.614;2023-03-29T06:06:32;95912.66;;;6.39;55.15
72395;BME280;60384;48.152;11.614;2023-03-29T06:09:36;95915.47;;;6.47;55.36
72395;BME280;60384;48.152;11.614;2023-03-29T06:12:38;95906.09;;;6.55;54.92
72395;BME280;60384;48.152;11.614;2023-03-29T06:15:40;95902.28;;;6.61;54.70
72395;BME280;60384;48.152;11.614;2023-03-29T06:18:43;95912.88;;;6.66;55.45
72395;BME280;60384;48.152;11.614;2023-03-29T06:21:45;95913.59;;;6.72;55.21
72395;BME280;60384;48.152;11.614;2023-03-29T06:24:54;95912.72;;;6.76;55.84
72395;BME280;60384;48.152;11.614;2023-03-29T06:27:59;95920.09;;;6.79;55.64
72395;BME280;60384;48.152;11.614;2023-03-29T06:31:02;95929.88;;;6.84;55.05
72395;BME280;60384;48.152;11.614;2023-03-29T06:34:08;95930.88;;;6.88;55.03
72395;BME280;60384;48.152;11.614;2023-03-29T06:37:27;95932.41;;;6.94;55.76
72395;BME280;60384;48.152;11.614;2023-03-29T06:40:42;95940.78;;;7.01;54.87
72395;BME280;60384;48.152;11.614;2023-03-29T06:43:44;95935.91;;;7.08;55.67
72395;BME280;60384;48.152;11.614;2023-03-29T06:46:49;95934.22;;;7.17;54.61
72395;BME280;60384;48.152;11.614;2023-03-29T06:49:51;95932.75;;;7.25;55.15
72395;BME280;60384;48.152;11.614;2023-03-29T06:53:03;95938.50;;;7.32;54.68
72395;BME280;60384;48.152;11.614;2023-03-29T06:56:07;95931.75;;;7.39;55.73
72395;BME280;60384;48.152;11.614;2023-03-29T06:59:09;95933.25;;;7.45;54.79
72395;BME280;60384;48.152;11.614;2023-03-29T07:02:30;95934.44;;;7.53;55.19
72395;BME280;60384;48.152;11.614;2023-03-29T07:05:42;95925.53;;;7.63;55.61
72395;BME280;60384;48.152;11.614;2023-03-29T07:08:48;95925.34;;;7.73;55.18
72395;BME280;60384;48.152;11.614;2023-03-29T07:12:15;95921.91;;;7.86;55.40
72395;BME280;60384;48.152;11.614;2023-03-29T07:15:17;95924.91;;;7.98;55.28
72395;BME280;60384;48.152;11.614;2023-03-29T07:18:38;95930.53;;;8.10;54.42
72395;BME280;60384;48.152;11.614;2023-03-29T07:21:41;95923.47;;;8.19;54.64
72395;BME280;60384;48.152;11.614;2023-03-29T07:24:43;95937.88;;;8.32;54.09
72395;BME280;60384;48.152;11.614;2023-03-29T07:27:47;95931.00;;;8.45;54.06
72395;BME280;60384;48.152;11.614;2023-03-29T07:30:49;95927.25;;;8.59;54.66
72395;BME280;60384;48.152;11.614;2023-03-29T07:33:54;95927.72;;;8.75;54.08
72395;BME280;60384;48.152;11.614;2023-03-29T07:36:55;95941.00;;;8.89;54.22
72395;BME280;60384;48.152;11.614;2023-03-29T07:39:58;95942.56;;;9.03;54.23
72395;BME280;60384;48.152;11.614;2023-03-29T07:43:30;95925.16;;;9.20;54.27
72395;BME280;60384;48.152;11.614;2023-03-29T07:46:33;95934.38;;;9.36;54.28
72395;BME280;60384;48.152;11.614;2023-03-29T07:49:35;95933.56;;;9.49;53.87
72395;BME280;60384;48.152;11.614;2023-03-29T07:52:37;95958.72;;;9.57;54.27
72395;BME280;60384;48.152;11.614;2023-03-29T07:55:39;95934.41;;;9.58;54.34
72395;BME280;60384;48.152;11.614;2023-03-29T07:59:26;95946.16;;;9.57;54.45
72395;BME280;60384;48.152;11.614;2023-03-29T08:02:41;95947.13;;;9.61;54.35
72395;BME280;60384;48.152;11.614;2023-03-29T08:05:43;95949.25;;;9.73;54.33
72395;BME280;60384;48.152;11.614;2023-03-29T08:08:47;95954.50;;;9.86;53.83
72395;BME280;60384;48.152;11.614;2023-03-29T08:11:50;95949.72;;;9.97;54.19
72395;BME280;60384;48.152;11.614;2023-03-29T08:15:02;95950.28;;;10.08;53.86
72395;BME280;60384;48.152;11.614;2023-03-29T08:18:07;95947.13;;;10.14;53.96
72395;BME280;60384;48.152;11.614;2023-03-29T08:21:09;95944.06;;;10.21;54.11
72395;BME280;60384;48.152;11.614;2023-03-29T08:24:11;95948.63;;;10.20;54.75
72395;BME280;60384;48.152;11.614;2023-03-29T08:27:20;95949.00;;;10.14;54.64
72395;BME280;60384;48.152;11.614;2023-03-29T08:30:23;95950.94;;;10.13;54.70
72395;BME280;60384;48.152;11.614;2023-03-29T08:33:25;95934.59;;;10.15;54.71
72395;BME280;60384;48.152;11.614;2023-03-29T08:36:37;95949.25;;;10.17;54.66
72395;BME280;60384;48.152;11.614;2023-03-29T08:39:47;95950.03;;;10.18;54.17
72395;BME280;60384;48.152;11.614;2023-03-29T08:46:58;95950.03;;;10.18;54.36
72395;BME280;60384;48.152;11.614;2023-03-29T08:50:08;95945.66;;;10.22;54.25
72395;BME280;60384;48.152;11.614;2023-03-29T08:53:16;95953.09;;;10.33;54.14
72395;BME280;60384;48.152;11.614;2023-03-29T08:56:46;95948.63;;;10.60;53.76
72395;BME280;60384;48.152;11.614;2023-03-29T08:59:57;95948.22;;;10.75;53.72
72395;BME280;60384;48.152;11.614;2023-03-29T09:03:02;95942.59;;;10.94;53.78
72395;BME280;60384;48.152;11.614;2023-03-29T09:06:09;95940.91;;;11.15;53.53
72395;BME280;60384;48.152;11.614;2023-03-29T09:09:13;95938.88;;;11.29;53.33
72395;BME280;60384;48.152;11.614;2023-03-29T09:12:20;95959.19;;;11.39;53.26
72395;BME280;60384;48.152;11.614;2023-03-29T09:15:26;95937.31;;;11.37;53.38
72395;BME280;60384;48.152;11.614;2023-03-29T09:18:54;95923.44;;;11.52;53.76
72395;BME280;60384;48.152;11.614;2023-03-29T09:22:00;95948.81;;;11.54;54.08
72395;BME280;60384;48.152;11.614;2023-03-29T09:25:05;95947.69;;;11.55;54.14
72395;BME280;60384;48.152;11.614;2023-03-29T09:28:12;95950.34;;;11.64;54.05
72395;BME280;60384;48.152;11.614;2023-03-29T09:31:24;95948.97;;;11.75;53.52
72395;BME280;60384;48.152;11.614;2023-03-29T09:34:30;95945.84;;;11.73;53.52
72395;BME280;60384;48.152;11.614;2023-03-29T09:37:40;95948.34;;;11.78;54.56
72395;BME280;60384;48.152;11.614;2023-03-29T09:40:45;95955.56;;;11.86;54.11
72395;BME280;60384;48.152;11.614;2023-03-29T09:43:52;95955.25;;;11.88;53.75
72395;BME280;60384;48.152;11.614;2023-03-29T09:47:01;95944.53;;;11.88;53.26
72395;BME280;60384;48.152;11.614;2023-03-29T09:50:10;95937.00;;;11.81;53.86
72395;BME280;60384;48.152;11.614;2023-03-29T09:53:14;95943.16;;;11.73;54.88
72395;BME280;60384;48.152;11.614;2023-03-29T09:56:23;95931.94;;;11.71;54.62
72395;BME280;60384;48.152;11.614;2023-03-29T09:59:35;95929.44;;;11.83;53.54
72395;BME280;60384;48.152;11.614;2023-03-29T10:02:37;95929.56;;;12.04;53.63
72395;BME280;60384;48.152;11.614;2023-03-29T10:05:40;95918.84;;;12.51;52.70
72395;BME280;60384;48.152;11.614;2023-03-29T10:08:49;95924.69;;;12.44;53.62
72395;BME280;60384;48.152;11.614;2023-03-29T10:11:55;95922.06;;;12.65;52.79
72395;BME280;60384;48.152;11.614;2023-03-29T10:15:01;95919.13;;;12.87;53.10
72395;BME280;60384;48.152;11.614;2023-03-29T10:18:05;95910.38;;;12.99;52.63
72395;BME280;60384;48.152;11.614;2023-03-29T10:21:12;95904.38;;;13.02;52.73
72395;BME280;60384;48.152;11.614;2023-03-29T10:24:17;95919.06;;;13.25;52.40
72395;BME280;60384;48.152;11.614;2023-03-29T10:27:19;95910.16;;;13.12;53.00
72395;BME280;60384;48.152;11.614;2023-03-29T10:30:23;95910.16;;;13.12;53.48
72395;BME280;60384;48.152;11.614;2023-03-29T10:33:27;95912.34;;;13.10;53.28
72395;BME280;60384;48.152;11.614;2023-03-29T10:36:31;95904.84;;;13.04;53.46
72395;BME280;60384;48.152;11.614;2023-03-29T10:39:33;95905.00;;;12.99;53.50
72395;BME280;60384;48.152;11.614;2023-03-29T10:42:35;95896.31;;;13.02;53.78
72395;BME280;60384;48.152;11.614;2023-03-29T10:45:37;95888.88;;;13.07;53.41
72395;BME280;60384;48.152;11.614;2023-03-29T10:48:43;95895.91;;;13.20;53.11
72395;BME280;60384;48.152;11.614;2023-03-29T10:51:48;95887.78;;;13.29;53.34
72395;BME280;60384;48.152;11.614;2023-03-29T10:54:51;95897.69;;;13.37;53.38
72395;BME280;60384;48.152;11.614;2023-03-29T10:57:57;95889.16;;;13.35;53.40
72395;BME280;60384;48.152;11.614;2023-03-29T11:01:01;95888.50;;;13.38;53.34
72395;BME280;60384;48.152;11.614;2023-03-29T11:04:06;95887.84;;;13.41;53.27
72395;BME280;60384;48.152;11.614;2023-03-29T11:07:18;95886.41;;;13.44;53.33
72395;BME280;60384;48.152;11.614;2023-03-29T11:10:26;95883.53;;;13.49;53.31
72395;BME280;60384;48.152;11.614;2023-03-29T11:13:32;95888.09;;;13.48;53.36
72395;BME280;60384;48.152;11.614;2023-03-29T11:16:38;95877.38;;;13.48;53.47
72395;BME280;60384;48.152;11.614;2023-03-29T11:19:51;95873.22;;;13.51;53.60
72395;BME280;60384;48.152;11.614;2023-03-29T11:22:58;95874.75;;;13.60;53.55
72395;BME280;60384;48.152;11.614;2023-03-29T11:26:03;95874.22;;;13.79;53.49
72395;BME280;60384;48.152;11.614;2023-03-29T11:29:10;95885.72;;;14.00;52.79
72395;BME280;60384;48.152;11.614;2023-03-29T11:32:13;95878.25;;;14.30;52.62
72395;BME280;60384;48.152;11.614;2023-03-29T11:35:24;95877.72;;;14.37;52.75
72395;BME280;60384;48.152;11.614;2023-03-29T11:38:30;95871.88;;;14.47;52.35
72395;BME280;60384;48.152;11.614;2023-03-29T11:41:34;95871.00;;;14.43;52.50
72395;BME280;60384;48.152;11.614;2023-03-29T11:44:38;95880.63;;;14.44;52.44
72395;BME280;60384;48.152;11.614;2023-03-29T11:47:40;95880.19;;;14.42;52.71
72395;BME280;60384;48.152;11.614;2023-03-29T11:50:45;95880.06;;;14.38;53.08
72395;BME280;60384;48.152;11.614;2023-03-29T11:53:52;95871.69;;;14.40;53.11
72395;BME280;60384;48.152;11.614;2023-03-29T11:56:56;95877.16;;;14.43;53.11
72395;BME280;60384;48.152;11.614;2023-03-29T12:00:01;95868.88;;;14.48;53.05
72395;BME280;60384;48.152;11.614;2023-03-29T12:03:12;95865.84;;;14.50;53.25
72395;BME280;60384;48.152;11.614;2023-03-29T12:06:18;95861.59;;;14.61;52.91
72395;BME280;60384;48.152;11.614;2023-03-29T12:09:24;95862.03;;;14.75;52.67
72395;BME280;60384;48.152;11.614;2023-03-29T12:12:28;95853.94;;;14.75;52.76
72395;BME280;60384;48.152;11.614;2023-03-29T12:15:31;95844.09;;;14.92;52.09
72395;BME280;60384;48.152;11.614;2023-03-29T12:18:37;95851.22;;;15.12;52.05
72395;BME280;60384;48.152;11.614;2023-03-29T12:21:40;95846.94;;;15.11;51.95
72395;BME280;60384;48.152;11.614;2023-03-29T12:24:44;95856.53;;;14.96;52.27
72395;BME280;60384;48.152;11.614;2023-03-29T12:27:50;95853.06;;;14.83;52.47
72395;BME280;60384;48.152;11.614;2023-03-29T12:30:57;95848.16;;;14.73;52.74
72395;BME280;60384;48.152;11.614;2023-03-29T12:37:23;95844.31;;;15.26;52.28
72395;BME280;60384;48.152;11.614;2023-03-29T12:40:56;95837.97;;;15.19;52.49
72395;BME280;60384;48.152;11.614;2023-03-29T12:44:25;95831.09;;;15.21;52.70
72395;BME280;60384;48.152;11.614;2023-03-29T12:47:35;95823.41;;;15.08;52.49
72395;BME280;60384;48.152;11.614;2023-03-29T12:50:42;95827.25;;;14.95;53.33
72395;BME280;60384;48.152;11.614;2023-03-29T12:53:46;95826.94;;;14.84;53.39
72395;BME280;60384;48.152;11.614;2023-03-29T12:56:54;95814.75;;;14.74;53.07
72395;BME280;60384;48.152;11.614;2023-03-29T13:00:06;95817.69;;;14.69;53.76
72395;BME280;60384;48.152;11.614;2023-03-29T13:03:20;95822.94;;;14.66;53.30
72395;BME280;60384;48.152;11.614;2023-03-29T13:06:30;95819.69;;;14.72;52.92
72395;BME280;60384;48.152;11.614;2023-03-29T13:09:33;95825.34;;;14.95;52.53
72395;BME280;60384;48.152;11.614;2023-03-29T13:12:39;95813.75;;;15.19;51.97
72395;BME280;60384;48.152;11.614;2023-03-29T13:15:42;95814.50;;;15.59;51.75
72395;BME280;60384;48.152;11.614;2023-03-29T13:18:49;95810.31;;;16.05;51.22
72395;BME280;60384;48.152;11.614;2023-03-29T13:21:55;95813.22;;;16.47;50.40
72395;BME280;60384;48.152;11.614;2023-03-29T13:25:07;95808.38;;;16.88;49.96
72395;BME280;60384;48.152;11.614;2023-03-29T13:28:18;95803.72;;;17.23;49.61
72395;BME280;60384;48.152;11.614;2023-03-29T13:31:25;95797.63;;;17.65;49.18
72395;BME280;60384;48.152;11.614;2023-03-29T13:34:32;95794.44;;;18.28;48.24
72395;BME280;60384;48.152;11.614;2023-03-29T13:37:38;95788.19;;;18.73;47.77
72395;BME280;60384;48.152;11.614;2023-03-29T13:40:42;95788.16;;;18.99;47.83
72395;BME280;60384;48.152;11.614;2023-03-29T13:43:50;95777.75;;;18.48;48.81
72395;BME280;60384;48.152;11.614;2023-03-29T13:47:03;95781.41;;;18.10;49.80
72395;BME280;60384;48.152;11.614;2023-03-29T13:50:09;95781.81;;;17.67;50.73
72395;BME280;60384;48.152;11.614;2023-03-29T13:53:13;95770.94;;;17.44;51.13
72395;BME280;60384;48.152;11.614;2023-03-29T13:56:21;95776.88;;;17.30;51.43
72395;BME280;60384;48.152;11.614;2023-03-29T13:59:27;95772.16;;;17.27;51.53
72395;BME280;60384;48.152;11.614;2023-03-29T14:02:31;95770.19;;;17.24;51.64
72395;BME280;60384;48.152;11.614;2023-03-29T14:05:37;95767.28;;;17.14;51.89
72395;BME280;60384;48.152;11.614;2023-03-29T14:08:40;95771.31;;;17.04;51.62
72395;BME280;60384;48.152;11.614;2023-03-29T14:11:42;95767.91;;;16.88;51.99
72395;BME280;60384;48.152;11.614;2023-03-29T14:14:46;95779.03;;;16.67;52.48
72395;BME280;60384;48.152;11.614;2023-03-29T14:17:48;95776.59;;;16.46;52.62
72395;BME280;60384;48.152;11.614;2023-03-29T14:20:50;95779.75;;;16.33;52.91
72395;BME280;60384;48.152;11.614;2023-03-29T14:23:55;95765.31;;;16.25;52.56
72395;BME280;60384;48.152;11.614;2023-03-29T14:27:00;95762.97;;;16.24;52.52
72395;BME280;60384;48.152;11.614;2023-03-29T14:30:16;95765.41;;;16.29;52.61
72395;BME280;60384;48.152;11.614;2023-03-29T14:33:23;95765.25;;;16.22;52.41
72395;BME280;60384;48.152;11.614;2023-03-29T14:36:27;95775.78;;;16.11;52.51
72395;BME280;60384;48.152;11.614;2023-03-29T14:39:30;95777.34;;;15.96;52.74
72395;BME280;60384;48.152;11.614;2023-03-29T14:42:32;95772.81;;;15.85;53.29
72395;BME280;60384;48.152;11.614;2023-03-29T14:45:35;95781.84;;;15.77;53.23
72395;BME280;60384;48.152;11.614;2023-03-29T14:48:37;95768.66;;;15.72;52.87
72395;BME280;60384;48.152;11.614;2023-03-29T14:51:39;95773.84;;;15.64;53.17
72395;BME280;60384;48.152;11.614;2023-03-29T14:54:42;95776.34;;;15.57;53.15
72395;BME280;60384;48.152;11.614;2023-03-29T14:57:44;95770.44;;;15.52;53.25
72395;BME280;60384;48.152;11.614;2023-03-29T15:00:50;95772.22;;;15.48;52.84
72395;BME280;60384;48.152;11.614;2023-03-29T15:03:53;95777.09;;;15.42;53.06
72395;BME280;60384;48.152;11.614;2023-03-29T15:06:55;95782.72;;;15.37;53.02
72395;BME280;60384;48.152;11.614;2023-03-29T15:09:59;95778.34;;;15.32;53.41
72395;BME280;60384;48.152;11.614;2023-03-29T15:13:01;95791.38;;;15.30;52.93
72395;BME280;60384;48.152;11.614;2023-03-29T15:16:05;95780.94;;;15.29;53.34
72395;BME280;60384;48.152;11.614;2023-03-29T15:19:09;95783.56;;;15.25;53.23
72395;BME280;60384;48.152;11.614;2023-03-29T15:22:13;95783.81;;;15.20;52.87
72395;BME280;60384;48.152;11.614;2023-03-29T15:25:17;95790.56;;;15.14;53.22
72395;BME280;60384;48.152;11.614;2023-03-29T15:28:26;95788.00;;;15.06;53.22
72395;BME280;60384;48.152;11.614;2023-03-29T15:31:32;95795.31;;;14.93;53.25
72395;BME280;60384;48.152;11.614;2023-03-29T15:34:34;95806.09;;;14.81;53.30
72395;BME280;60384;48.152;11.614;2023-03-29T15:37:37;95799.41;;;14.75;53.48
72395;BME280;60384;48.152;11.614;2023-03-29T15:40:39;95809.94;;;14.68;53.21
72395;BME280;60384;48.152;11.614;2023-03-29T15:43:41;95798.66;;;14.62;52.99
72395;BME280;60384;48.152;11.614;2023-03-29T15:46:44;95794.16;;;14.54;52.90
72395;BME280;60384;48.152;11.614;2023-03-29T15:49:46;95781.97;;;14.44;53.37
72395;BME280;60384;48.152;11.614;2023-03-29T15:52:48;95786.00;;;14.38;53.32
72395;BME280;60384;48.152;11.614;2023-03-29T15:55:50;95772.44;;;14.35;53.23
72395;BME280;60384;48.152;11.614;2023-03-29T15:58:52;95773.34;;;14.39;53.04
72395;BME280;60384;48.152;11.614;2023-03-29T16:01:55;95765.50;;;14.34;52.98
72395;BME280;60384;48.152;11.614;2023-03-29T16:04:57;95769.19;;;14.29;53.39
72395;BME280;60384;48.152;11.614;2023-03-29T16:08:00;95764.03;;;14.24;53.31
72395;BME280;60384;48.152;11.614;2023-03-29T16:11:02;95766.50;;;14.17;53.36
72395;BME280;60384;48.152;11.614;2023-03-29T16:14:08;95760.91;;;14.10;53.55
72395;BME280;60384;48.152;11.614;2023-03-29T16:17:14;95758.47;;;14.05;53.91
72395;BME280;60384;48.152;11.614;2023-03-29T16:20:16;95765.16;;;13.99;53.76
72395;BME280;60384;48.152;11.614;2023-03-29T16:23:19;95749.94;;;13.91;53.76
72395;BME280;60384;48.152;11.614;2023-03-29T16:26:21;95757.00;;;13.83;53.47